Time;durP1;ratioP1;P1;durP2;ratioP2;P2;SDS_P1;SDS_P2;PMS_P1;PMS_P2;Temp;Humidity;BMP_temperature;BMP_pressure;BME280_temperature;BME280_humidity;BME280_pressure;Samples;Min_cycle;Max_cycle;Signal;HPM_P1;HPM_P2
2022/04/15 00:01:32;;;;;;;3.20;2.57;;;22.70;43.60;;;;;;5012484;28;20198;-46
2022/04/15 00:03:58;;;;;;;3.23;2.10;;;22.70;43.70;;;;;;5009535;28;20224;-46
2022/04/15 00:06:24;;;;;;;3.13;2.70;;;22.70;44.20;;;;;;5007765;28;20996;-48
2022/04/15 00:08:50;;;;;;;3.33;2.53;;;22.70;43.70;;;;;;5011019;28;20452;-47
2022/04/15 00:11:16;;;;;;;2.90;2.57;;;22.60;43.90;;;;;;5008186;28;20444;-47
2022/04/15 00:13:42;;;;;;;2.93;2.50;;;22.40;44.40;;;;;;5004243;28;20951;-47
2022/04/15 00:16:09;;;;;;;3.33;2.43;;;22.40;44.50;;;;;;5011753;28;20212;-47
2022/04/15 00:18:35;;;;;;;4.30;2.07;;;22.30;44.50;;;;;;5017259;28;20483;-46
2022/04/15 00:21:02;;;;;;;2.97;2.40;;;22.40;44.50;;;;;;5014562;28;22012;-47
2022/04/15 00:23:28;;;;;;;4.03;2.57;;;22.40;44.40;;;;;;5011146;28;20429;-46
2022/04/15 00:25:54;;;;;;;2.70;2.50;;;22.40;44.30;;;;;;5011641;28;20471;-48
2022/04/15 00:28:21;;;;;;;2.90;2.27;;;22.30;44.30;;;;;;5012797;28;20441;-49
2022/04/15 00:30:47;;;;;;;4.80;2.33;;;22.40;44.30;;;;;;5010687;28;20528;-50
2022/04/15 00:33:13;;;;;;;3.77;2.77;;;22.40;44.20;;;;;;5008546;28;20936;-49
2022/04/15 00:35:38;;;;;;;3.90;2.60;;;22.30;44.20;;;;;;5008842;28;20440;-50
2022/04/15 00:38:05;;;;;;;3.47;2.30;;;22.30;44.40;;;;;;5006344;28;20204;-47
2022/04/15 00:40:31;;;;;;;6.50;3.33;;;22.30;44.50;;;;;;5005664;28;20660;-51
2022/04/15 00:42:56;;;;;;;4.23;3.10;;;22.30;44.50;;;;;;5009662;28;20599;-47
2022/04/15 00:45:22;;;;;;;5.10;3.27;;;22.30;44.60;;;;;;5010676;28;20948;-51
2022/04/15 00:47:48;;;;;;;3.90;3.10;;;22.20;44.60;;;;;;5010186;28;20232;-50
2022/04/15 00:50:14;;;;;;;3.57;2.83;;;22.20;44.60;;;;;;5006368;28;20801;-49
2022/04/15 00:52:44;;;;;;;3.50;2.87;;;22.20;44.60;;;;;;5004470;28;20444;-51
2022/04/15 00:55:10;;;;;;;4.03;3.37;;;22.20;44.70;;;;;;5002079;28;20924;-49
2022/04/15 00:57:39;;;;;;;3.37;3.17;;;22.10;44.70;;;;;;5007056;28;20437;-50
2022/04/15 01:00:07;;;;;;;3.17;2.80;;;21.90;44.80;;;;;;5006951;28;20460;-47
2022/04/15 01:02:36;;;;;;;3.70;2.77;;;21.80;45.10;;;;;;5007284;28;20970;-50
2022/04/15 01:05:04;;;;;;;3.40;2.83;;;21.60;45.60;;;;;;5008949;28;20437;-51
2022/04/15 01:07:34;;;;;;;5.10;3.47;;;21.40;46.00;;;;;;5010157;28;20979;-47
2022/04/15 01:10:03;;;;;;;5.00;3.87;;;21.30;46.30;;;;;;5007548;28;20524;-48
2022/04/15 01:12:31;;;;;;;3.03;2.73;;;21.20;46.60;;;;;;5000773;28;20437;-47
2022/04/15 01:15:01;;;;;;;4.90;2.70;;;21.10;46.70;;;;;;5003413;28;20473;-49
2022/04/15 01:17:28;;;;;;;5.90;3.13;;;21.10;46.90;;;;;;5003983;28;22765;-47
2022/04/15 01:19:54;;;;;;;3.43;2.83;;;21.00;47.10;;;;;;5008413;28;20864;-48
2022/04/15 01:22:23;;;;;;;5.53;3.00;;;20.90;47.50;;;;;;5010100;28;20494;-47
2022/04/15 01:24:48;;;;;;;7.10;3.07;;;20.70;47.80;;;;;;5009206;28;20459;-49
2022/04/15 01:27:31;;;;;;;3.20;2.90;;;20.60;48.30;;;;;;5010180;28;20497;-46
2022/04/15 01:29:57;;;;;;;3.27;2.83;;;20.40;48.60;;;;;;5007203;28;20198;-46
2022/04/15 01:32:23;;;;;;;4.03;2.97;;;20.30;48.90;;;;;;5009421;28;20496;-46
2022/04/15 01:34:48;;;;;;;3.80;2.77;;;20.20;49.20;;;;;;5008615;28;20232;-50
2022/04/15 01:37:17;;;;;;;4.83;2.30;;;20.20;49.20;;;;;;5010451;28;20202;-48
2022/04/15 01:39:43;;;;;;;3.63;3.20;;;20.10;49.20;;;;;;5005688;28;20208;-47
2022/04/15 01:42:13;;;;;;;5.60;3.10;;;20.10;49.40;;;;;;5010754;28;20472;-47
2022/04/15 01:44:40;;;;;;;5.23;3.30;;;20.00;49.70;;;;;;5005414;28;20473;-47
2022/04/15 01:47:07;;;;;;;4.40;2.67;;;20.00;49.70;;;;;;5009639;28;20485;-47
2022/04/15 01:49:32;;;;;;;4.10;2.93;;;19.90;49.70;;;;;;5010189;28;21010;-48
2022/04/15 01:51:58;;;;;;;3.10;2.80;;;19.90;49.80;;;;;;5005896;28;20449;-48
2022/04/15 01:54:23;;;;;;;3.70;3.00;;;19.90;49.80;;;;;;5005460;28;20575;-48
2022/04/15 01:56:49;;;;;;;3.33;2.53;;;19.90;49.80;;;;;;5004661;28;20568;-49
2022/04/15 01:59:15;;;;;;;5.53;2.90;;;19.90;49.80;;;;;;5009692;28;20552;-47
2022/04/15 02:01:40;;;;;;;3.40;3.07;;;19.90;49.80;;;;;;5008112;28;20190;-46
2022/04/15 02:04:06;;;;;;;4.37;2.70;;;19.90;49.80;;;;;;5001672;28;20209;-46
2022/04/15 02:06:32;;;;;;;4.33;3.50;;;19.90;49.80;;;;;;5007581;28;20260;-48
2022/04/15 02:08:57;;;;;;;4.70;2.90;;;19.90;49.80;;;;;;5006921;28;20190;-46
2022/04/15 02:11:23;;;;;;;3.47;3.17;;;19.90;49.70;;;;;;5000412;28;22009;-47
2022/04/15 02:13:48;;;;;;;3.73;2.80;;;19.90;49.70;;;;;;5007681;28;20646;-47
2022/04/15 02:16:14;;;;;;;6.90;2.97;;;19.80;49.60;;;;;;5006151;28;20228;-48
2022/04/15 02:18:40;;;;;;;4.27;3.70;;;19.70;49.70;;;;;;5006256;28;20207;-46
2022/04/15 02:21:05;;;;;;;5.57;3.60;;;19.70;49.70;;;;;;5009490;28;20284;-46
2022/04/15 02:23:31;;;;;;;4.10;3.37;;;19.60;50.10;;;;;;5014785;28;20217;-46
2022/04/15 02:25:56;;;;;;;3.93;3.53;;;19.50;50.30;;;;;;5004928;28;20229;-46
2022/04/15 02:28:22;;;;;;;3.40;3.10;;;19.40;50.60;;;;;;5008921;28;20206;-47
2022/04/15 02:30:48;;;;;;;5.97;3.37;;;19.50;50.60;;;;;;5006610;28;20212;-47
2022/04/15 02:33:17;;;;;;;5.90;3.80;;;19.50;50.60;;;;;;5006679;28;20665;-46
2022/04/15 02:35:42;;;;;;;3.50;3.20;;;19.50;50.70;;;;;;5007332;28;20198;-46
2022/04/15 02:38:08;;;;;;;6.00;4.20;;;19.40;50.70;;;;;;5005977;28;21306;-47
2022/04/15 02:40:34;;;;;;;4.93;4.17;;;19.40;50.50;;;;;;5005752;28;20296;-47
2022/04/15 02:43:00;;;;;;;4.03;3.63;;;19.40;50.30;;;;;;5008479;28;20276;-46
2022/04/15 02:45:28;;;;;;;6.00;4.27;;;19.40;50.20;;;;;;5007007;28;20653;-46
2022/04/15 02:47:53;;;;;;;6.07;4.17;;;19.30;50.50;;;;;;5009800;28;20967;-46
2022/04/15 02:50:19;;;;;;;4.63;3.47;;;19.20;50.90;;;;;;5002709;28;20440;-46
2022/04/15 02:52:45;;;;;;;4.30;3.70;;;19.10;50.90;;;;;;5005492;28;20208;-46
2022/04/15 02:55:10;;;;;;;4.50;3.93;;;19.10;50.90;;;;;;5007816;28;20192;-46
2022/04/15 02:57:36;;;;;;;3.90;3.50;;;19.10;51.00;;;;;;5011901;28;20205;-45
2022/04/15 03:00:02;;;;;;;4.30;3.77;;;19.00;51.20;;;;;;5011770;28;20256;-46
2022/04/15 03:02:31;;;;;;;3.07;2.83;;;19.00;51.20;;;;;;5010843;28;20197;-47
2022/04/15 03:04:56;;;;;;;4.40;3.60;;;19.10;51.20;;;;;;5010417;28;20510;-47
2022/04/15 03:07:22;;;;;;;7.83;3.20;;;19.10;51.10;;;;;;5013181;28;20487;-47
2022/04/15 03:09:47;;;;;;;4.73;3.33;;;19.10;51.00;;;;;;5004878;28;20190;-46
2022/04/15 03:12:13;;;;;;;4.10;3.37;;;19.00;51.20;;;;;;5013040;28;20593;-47
2022/04/15 03:14:39;;;;;;;4.80;3.87;;;19.00;51.50;;;;;;5009456;28;20936;-46
2022/04/15 03:17:05;;;;;;;4.10;3.40;;;19.00;51.20;;;;;;5009719;28;20662;-47
2022/04/15 03:19:31;;;;;;;4.57;3.50;;;19.00;50.90;;;;;;5011608;28;20197;-47
2022/04/15 03:21:57;;;;;;;3.70;3.37;;;19.00;50.90;;;;;;5011950;28;20551;-47
2022/04/15 03:24:22;;;;;;;7.10;3.60;;;19.00;51.00;;;;;;5011512;28;20688;-47
2022/04/15 03:26:48;;;;;;;5.60;3.50;;;18.90;50.90;;;;;;5007560;28;20230;-47
2022/04/15 03:29:13;;;;;;;3.43;3.10;;;18.80;51.00;;;;;;5009773;28;20189;-47
2022/04/15 03:31:39;;;;;;;5.87;2.90;;;18.80;51.20;;;;;;5010364;28;20641;-46
2022/04/15 03:34:05;;;;;;;5.60;3.67;;;18.80;51.40;;;;;;5011061;28;20201;-47
2022/04/15 03:36:31;;;;;;;4.37;3.73;;;18.70;51.50;;;;;;5004352;28;20202;-46
2022/04/15 03:38:56;;;;;;;5.37;3.57;;;18.60;51.70;;;;;;5004305;28;21506;-49
2022/04/15 03:41:22;;;;;;;6.03;3.17;;;18.60;51.90;;;;;;5005643;28;20536;-47
2022/04/15 03:43:50;;;;;;;3.43;3.17;;;18.60;52.10;;;;;;5011640;28;20567;-51
2022/04/15 03:46:16;;;;;;;5.30;2.80;;;18.60;52.10;;;;;;5009239;28;20478;-48
2022/04/15 03:48:41;;;;;;;4.83;3.43;;;18.70;52.10;;;;;;5008747;28;20528;-50
2022/04/15 03:51:11;;;;;;;4.27;3.87;;;18.80;51.80;;;;;;5011564;28;20666;-50
2022/04/15 03:53:37;;;;;;;5.07;3.27;;;18.80;51.30;;;;;;5009093;28;20194;-51
2022/04/15 03:56:07;;;;;;;5.90;2.90;;;18.80;51.30;;;;;;5012695;28;20474;-50
2022/04/15 03:58:34;;;;;;;4.27;3.30;;;18.80;51.50;;;;;;5010458;28;20456;-49
2022/04/15 04:00:59;;;;;;;3.43;3.13;;;18.80;51.60;;;;;;5016678;28;21916;-50
2022/04/15 04:03:25;;;;;;;6.60;3.10;;;18.70;51.70;;;;;;5010995;28;20499;-51
2022/04/15 04:05:51;;;;;;;5.73;3.50;;;18.70;51.70;;;;;;5010695;28;20561;-51
2022/04/15 04:08:17;;;;;;;4.00;3.60;;;18.70;51.60;;;;;;5004778;28;20640;-48
2022/04/15 04:10:42;;;;;;;4.10;3.70;;;18.70;51.60;;;;;;5009283;28;20638;-51
2022/04/15 04:13:08;;;;;;;4.00;3.67;;;18.60;51.70;;;;;;5011654;28;20619;-46
2022/04/15 04:15:34;;;;;;;3.87;3.30;;;18.60;51.90;;;;;;5015505;28;20201;-50
2022/04/15 04:18:00;;;;;;;6.00;3.40;;;18.70;51.90;;;;;;5015655;28;20220;-50
2022/04/15 04:20:26;;;;;;;3.90;3.50;;;18.70;51.70;;;;;;5004791;28;20484;-49
2022/04/15 04:22:52;;;;;;;3.20;2.90;;;18.80;51.50;;;;;;5014038;28;20206;-50
2022/04/15 04:25:17;;;;;;;3.33;2.90;;;18.70;51.20;;;;;;5008889;28;20788;-48
2022/04/15 04:27:43;;;;;;;5.53;3.17;;;18.80;51.40;;;;;;5011001;28;20304;-51
2022/04/15 04:30:15;;;;;;;5.20;3.60;;;18.80;51.40;;;;;;5009837;28;20198;-46
2022/04/15 04:32:42;;;;;;;3.50;3.03;;;18.80;51.00;;;;;;5010798;28;20455;-51
2022/04/15 04:35:08;;;;;;;3.63;3.30;;;18.90;50.90;;;;;;4997746;28;20464;-47
2022/04/15 04:37:34;;;;;;;3.70;3.40;;;18.80;50.70;;;;;;5009680;28;20448;-49
2022/04/15 04:40:00;;;;;;;4.40;3.40;;;18.80;50.80;;;;;;5015073;28;20448;-51
2022/04/15 04:42:26;;;;;;;5.20;3.40;;;18.70;50.80;;;;;;5009870;28;20451;-46
2022/04/15 04:44:52;;;;;;;5.97;3.10;;;18.70;50.90;;;;;;5008810;28;20258;-46
2022/04/15 04:47:19;;;;;;;4.20;3.40;;;18.60;50.90;;;;;;5009673;28;20488;-49
2022/04/15 04:49:45;;;;;;;2.80;2.60;;;18.50;51.00;;;;;;5008932;28;20527;-48
2022/04/15 04:52:11;;;;;;;5.70;3.13;;;18.40;51.40;;;;;;5008029;28;21062;-48
2022/04/15 04:54:37;;;;;;;4.43;3.43;;;18.40;51.70;;;;;;5008293;28;20225;-46
2022/04/15 04:57:03;;;;;;;3.30;3.00;;;18.40;51.60;;;;;;5010914;28;20282;-51
2022/04/15 04:59:31;;;;;;;3.33;2.90;;;18.50;51.40;;;;;;5007997;28;20560;-47
2022/04/15 05:01:57;;;;;;;3.30;3.00;;;18.50;51.40;;;;;;5005465;28;20666;-48
2022/04/15 05:04:22;;;;;;;4.13;3.67;;;18.40;51.80;;;;;;5010072;28;20825;-48
2022/04/15 05:06:48;;;;;;;5.63;3.30;;;18.40;52.00;;;;;;5009721;28;20488;-47
2022/04/15 05:09:15;;;;;;;7.10;3.30;;;18.40;52.10;;;;;;5002677;28;20198;-51
2022/04/15 05:11:41;;;;;;;2.90;2.60;;;18.50;52.40;;;;;;5007979;28;20586;-48
2022/04/15 05:14:07;;;;;;;4.03;3.00;;;18.50;52.00;;;;;;5004674;28;20437;-47
2022/04/15 05:16:32;;;;;;;3.60;3.07;;;18.50;51.90;;;;;;5011246;28;20876;-46
2022/04/15 05:18:58;;;;;;;3.60;2.80;;;18.60;51.90;;;;;;5010615;28;20201;-49
2022/04/15 05:21:24;;;;;;;3.07;2.87;;;18.60;52.00;;;;;;5010768;28;20197;-47
2022/04/15 05:23:49;;;;;;;6.13;3.60;;;18.60;52.00;;;;;;5006315;28;20604;-50
2022/04/15 05:26:15;;;;;;;4.20;3.20;;;18.70;52.10;;;;;;5000536;28;20666;-46
2022/04/15 05:28:41;;;;;;;6.67;4.13;;;18.70;52.30;;;;;;5012041;28;20470;-46
2022/04/15 05:31:08;;;;;;;3.50;3.20;;;18.60;52.30;;;;;;5010684;28;20294;-50
2022/04/15 05:33:34;;;;;;;5.43;3.40;;;18.60;52.40;;;;;;5006125;28;20441;-50
2022/04/15 05:35:59;;;;;;;6.90;3.07;;;18.60;52.50;;;;;;5003168;28;20437;-48
2022/04/15 05:38:25;;;;;;;4.80;3.67;;;18.60;52.60;;;;;;5010502;28;20244;-47
2022/04/15 05:40:51;;;;;;;3.90;3.10;;;18.50;52.90;;;;;;5008395;28;20603;-46
2022/04/15 05:43:16;;;;;;;3.80;3.50;;;18.60;52.90;;;;;;5008990;28;20288;-47
2022/04/15 05:45:42;;;;;;;3.40;3.10;;;18.50;53.00;;;;;;5007183;28;20206;-48
2022/04/15 05:48:08;;;;;;;3.30;3.00;;;18.60;53.00;;;;;;5001742;28;20222;-46
2022/04/15 05:50:34;;;;;;;3.40;2.60;;;18.60;53.00;;;;;;5000311;28;20193;-48
2022/04/15 05:53:00;;;;;;;4.47;3.57;;;18.60;52.90;;;;;;5003446;28;20271;-50
2022/04/15 05:55:26;;;;;;;3.77;3.33;;;18.50;53.20;;;;;;5006499;28;20437;-49
2022/04/15 05:57:51;;;;;;;6.23;4.10;;;18.30;53.70;;;;;;5006594;28;20213;-47
2022/04/15 06:00:17;;;;;;;6.73;3.30;;;18.10;54.10;;;;;;5003679;28;20190;-46
2022/04/15 06:02:43;;;;;;;3.50;3.20;;;18.20;54.30;;;;;;5009051;28;20276;-48
2022/04/15 06:05:09;;;;;;;4.07;3.67;;;18.40;54.00;;;;;;5006436;28;20226;-47
2022/04/15 06:07:35;;;;;;;4.43;3.40;;;18.50;53.90;;;;;;5004998;28;20233;-47
2022/04/15 06:10:01;;;;;;;2.90;2.70;;;18.70;53.60;;;;;;5003023;28;20437;-47
2022/04/15 06:15:31;;;;;;;4.33;3.90;;;18.90;53.30;;;;;;5001921;28;20794;-48
2022/04/15 06:17:57;;;;;;;7.57;4.50;;;19.00;53.10;;;;;;5000401;28;20933;-48
2022/04/15 06:20:23;;;;;;;3.93;3.63;;;19.10;53.10;;;;;;5009902;28;20549;-47
2022/04/15 06:22:48;;;;;;;4.30;3.67;;;19.20;53.10;;;;;;4995432;28;20442;-46
2022/04/15 06:25:14;;;;;;;3.90;3.40;;;19.30;53.10;;;;;;4999282;28;20226;-47
2022/04/15 06:27:40;;;;;;;6.60;4.27;;;19.30;53.00;;;;;;5005240;28;20712;-47
2022/04/15 06:30:07;;;;;;;5.73;4.40;;;19.30;53.10;;;;;;5007963;28;20260;-46
2022/04/15 06:32:34;;;;;;;6.47;3.73;;;19.40;53.20;;;;;;5000516;28;20194;-48
2022/04/15 06:34:59;;;;;;;4.83;4.00;;;19.50;53.40;;;;;;4995098;28;20864;-48
2022/04/15 06:37:25;;;;;;;6.33;4.30;;;19.40;53.30;;;;;;5007037;28;20449;-47
2022/04/15 06:39:51;;;;;;;5.27;4.20;;;19.50;53.30;;;;;;5007678;28;20202;-46
2022/04/15 06:42:24;;;;;;;4.80;3.90;;;19.60;53.10;;;;;;5001979;28;20225;-48
2022/04/15 06:44:49;;;;;;;5.37;4.57;;;19.80;53.20;;;;;;4999633;28;20484;-47
2022/04/15 06:47:15;;;;;;;4.93;4.43;;;19.90;53.00;;;;;;5002138;28;20555;-47
2022/04/15 06:49:45;;;;;;;6.50;4.20;;;19.90;53.10;;;;;;4997103;28;20681;-47
2022/04/15 06:52:11;;;;;;;4.83;4.37;;;20.00;53.00;;;;;;5001712;28;20483;-46
2022/04/15 06:54:37;;;;;;;5.07;3.83;;;20.20;52.70;;;;;;5004688;28;20484;-47
2022/04/15 06:57:03;;;;;;;6.43;4.50;;;20.40;52.20;;;;;;5003008;28;21542;-46
2022/04/15 06:59:28;;;;;;;5.73;4.67;;;20.70;51.70;;;;;;4998581;28;20197;-46
2022/04/15 07:01:55;;;;;;;4.90;4.40;;;20.80;51.60;;;;;;5007243;28;20564;-49
2022/04/15 07:04:21;;;;;;;6.03;4.10;;;21.00;51.00;;;;;;5005185;28;20244;-47
2022/04/15 07:06:47;;;;;;;7.90;4.60;;;21.30;51.10;;;;;;5013386;28;20472;-46
2022/04/15 07:09:13;;;;;;;7.00;4.33;;;21.40;50.80;;;;;;5006665;28;20429;-46
2022/04/15 07:11:39;;;;;;;5.83;4.73;;;21.60;50.10;;;;;;5002361;28;20445;-47
2022/04/15 07:14:05;;;;;;;6.90;5.40;;;21.80;49.60;;;;;;5005378;28;20225;-46
2022/04/15 07:16:31;;;;;;;7.63;6.57;;;22.00;49.40;;;;;;5006450;28;20582;-46
2022/04/15 07:18:57;;;;;;;8.77;7.33;;;22.10;49.00;;;;;;5006393;28;20197;-46
2022/04/15 07:21:24;;;;;;;9.80;7.30;;;22.30;48.50;;;;;;5001882;28;20449;-46
2022/04/15 07:23:50;;;;;;;11.03;7.87;;;22.40;48.30;;;;;;5000954;28;20430;-47
2022/04/15 07:26:16;;;;;;;9.27;8.27;;;22.50;47.90;;;;;;5007427;28;20443;-46
2022/04/15 07:28:41;;;;;;;8.63;7.83;;;22.60;47.40;;;;;;5002410;28;20762;-46
2022/04/15 07:31:07;;;;;;;7.83;6.80;;;22.60;47.30;;;;;;5001206;28;20283;-48
2022/04/15 07:33:33;;;;;;;7.43;6.23;;;22.70;47.40;;;;;;5007698;28;20560;-46
2022/04/15 07:35:58;;;;;;;7.17;6.47;;;22.80;47.90;;;;;;5007980;28;21815;-46
2022/04/15 07:38:24;;;;;;;8.63;7.03;;;22.90;47.50;;;;;;5006676;28;20339;-48
2022/04/15 07:40:49;;;;;;;11.80;7.70;;;23.00;46.80;;;;;;5003609;28;20190;-47
2022/04/15 07:43:15;;;;;;;8.27;7.00;;;23.20;46.70;;;;;;5009395;28;20197;-49
2022/04/15 07:45:41;;;;;;;11.17;7.10;;;23.20;46.50;;;;;;5009721;28;20936;-47
2022/04/15 07:48:07;;;;;;;8.07;7.10;;;23.30;47.00;;;;;;5009992;28;20237;-46
2022/04/15 07:50:33;;;;;;;8.33;7.63;;;23.50;46.30;;;;;;5002011;28;20190;-45
2022/04/15 07:53:00;;;;;;;9.53;7.70;;;23.60;45.90;;;;;;5006123;28;20206;-48
2022/04/15 07:55:26;;;;;;;8.93;8.03;;;23.70;45.80;;;;;;5007446;28;20425;-47
2022/04/15 07:57:53;;;;;;;8.80;7.90;;;23.80;44.90;;;;;;5008464;28;20440;-48
2022/04/15 08:00:20;;;;;;;8.80;8.03;;;23.90;45.20;;;;;;5003060;28;20442;-48
2022/04/15 08:02:46;;;;;;;11.73;8.80;;;24.00;45.70;;;;;;5009945;28;20436;-47
2022/04/15 08:05:13;;;;;;;11.77;9.50;;;24.10;44.50;;;;;;5006504;28;20999;-46
2022/04/15 08:07:39;;;;;;;10.67;9.67;;;24.20;43.70;;;;;;5006744;28;20719;-48
2022/04/15 08:10:06;;;;;;;10.67;9.67;;;24.10;43.50;;;;;;5010593;28;20440;-48
2022/04/15 08:12:32;;;;;;;10.20;9.20;;;24.20;43.10;;;;;;5012512;28;20224;-48
2022/04/15 08:14:59;;;;;;;10.37;9.37;;;24.30;43.40;;;;;;5004365;28;20429;-46
2022/04/15 08:17:24;;;;;;;10.37;9.40;;;24.40;43.60;;;;;;5007066;28;20438;-46
2022/04/15 08:19:50;;;;;;;11.27;10.17;;;24.30;43.40;;;;;;5010449;28;21083;-49
2022/04/15 08:22:15;;;;;;;10.60;9.50;;;24.40;43.50;;;;;;5011056;28;20649;-47
2022/04/15 08:24:42;;;;;;;11.83;9.17;;;24.40;43.10;;;;;;5011931;28;20202;-46
2022/04/15 08:27:12;;;;;;;11.40;9.87;;;24.50;42.90;;;;;;5010315;28;20740;-48
2022/04/15 08:29:38;;;;;;;10.50;9.50;;;24.60;43.20;;;;;;5011735;28;20491;-49
2022/04/15 08:32:07;;;;;;;10.13;9.27;;;24.60;43.30;;;;;;5012438;28;20483;-48
2022/04/15 08:34:34;;;;;;;9.93;9.03;;;24.60;43.40;;;;;;5012203;28;20437;-48
2022/04/15 08:37:00;;;;;;;11.70;9.53;;;24.70;43.60;;;;;;5011861;28;20672;-47
2022/04/15 08:39:25;;;;;;;10.20;9.23;;;24.80;43.60;;;;;;5012284;28;20437;-47
2022/04/15 08:41:54;;;;;;;11.13;10.00;;;25.00;43.20;;;;;;5011474;28;20240;-49
2022/04/15 08:44:22;;;;;;;12.10;10.67;;;25.10;43.20;;;;;;5012233;28;20241;-46
2022/04/15 08:46:49;;;;;;;12.30;11.30;;;25.30;42.10;;;;;;5010761;28;20492;-47
2022/04/15 08:49:19;;;;;;;12.97;11.77;;;25.40;41.50;;;;;;5012039;28;20451;-47
2022/04/15 08:51:49;;;;;;;12.07;10.87;;;25.40;40.00;;;;;;5011459;28;20440;-47
2022/04/15 08:54:15;;;;;;;11.70;10.70;;;25.40;40.30;;;;;;5006470;28;20447;-48
2022/04/15 08:56:42;;;;;;;12.13;10.37;;;25.50;40.20;;;;;;5011025;28;20440;-46
2022/04/15 08:59:07;;;;;;;12.57;11.27;;;25.70;40.40;;;;;;5011670;28;20455;-49
2022/04/15 09:01:33;;;;;;;13.00;11.73;;;25.90;40.10;;;;;;5011205;28;20436;-46
2022/04/15 09:04:00;;;;;;;12.20;11.20;;;25.90;39.50;;;;;;5010862;28;20268;-47
2022/04/15 09:06:32;;;;;;;12.97;11.87;;;25.90;39.80;;;;;;5010468;28;20218;-48
2022/04/15 09:09:02;;;;;;;12.53;11.23;;;25.90;40.20;;;;;;5011124;28;20460;-46
2022/04/15 09:11:34;;;;;;;14.60;13.10;;;26.00;40.20;;;;;;5011370;28;21237;-46
2022/04/15 09:14:03;;;;;;;15.43;14.13;;;26.10;39.50;;;;;;5011172;28;21041;-46
2022/04/15 09:16:30;;;;;;;14.20;12.80;;;25.90;39.30;;;;;;5011290;28;20556;-46
2022/04/15 09:18:56;;;;;;;11.70;10.70;;;25.80;39.30;;;;;;5015280;28;20795;-47
2022/04/15 09:21:27;;;;;;;12.33;10.73;;;25.90;41.20;;;;;;5009530;28;20421;-46
2022/04/15 09:23:55;;;;;;;13.77;12.47;;;26.00;41.60;;;;;;5011310;28;20587;-46
2022/04/15 09:26:22;;;;;;;12.90;11.70;;;26.20;41.20;;;;;;5010837;28;20834;-47
2022/04/15 09:28:49;;;;;;;14.20;12.90;;;26.30;40.60;;;;;;5010498;28;20539;-46
2022/04/15 09:31:16;;;;;;;13.27;12.17;;;26.40;38.50;;;;;;5010930;28;20483;-46
2022/04/15 09:34:01;;;;;;;14.47;12.57;;;26.50;38.60;;;;;;5011219;28;20495;-46
2022/04/15 09:36:35;;;;;;;14.90;13.60;;;26.50;37.80;;;;;;5010559;28;20575;-47
2022/04/15 09:39:14;;;;;;;12.57;11.50;;;26.50;38.30;;;;;;5010502;28;20456;-46
2022/04/15 09:41:41;;;;;;;14.43;12.90;;;26.50;38.50;;;;;;5010636;28;20467;-48
2022/04/15 09:44:11;;;;;;;12.43;11.43;;;26.50;38.90;;;;;;5010989;28;20560;-46
2022/04/15 09:46:37;;;;;;;12.70;11.17;;;26.50;39.10;;;;;;5010562;28;20523;-47
2022/04/15 09:49:08;;;;;;;13.70;12.60;;;26.60;39.30;;;;;;5008576;28;20437;-51
2022/04/15 09:51:47;;;;;;;13.37;12.27;;;26.80;38.00;;;;;;4999337;28;20251;-47
2022/04/15 09:54:22;;;;;;;13.03;11.80;;;26.90;37.60;;;;;;5007195;28;20444;-50
2022/04/15 09:56:48;;;;;;;14.87;13.47;;;27.20;36.70;;;;;;4999672;28;20459;-47
2022/04/15 09:59:15;;;;;;;12.87;11.83;;;27.30;36.90;;;;;;5007123;28;20452;-49
2022/04/15 10:01:47;;;;;;;11.70;10.70;;;27.40;37.20;;;;;;5005811;28;20987;-47
2022/04/15 10:04:14;;;;;;;11.37;10.47;;;27.60;36.80;;;;;;5005404;28;20429;-46
2022/04/15 10:06:41;;;;;;;11.13;10.23;;;27.80;37.00;;;;;;5006400;28;20596;-49
2022/04/15 10:09:13;;;;;;;12.97;11.67;;;27.80;36.20;;;;;;5005280;28;20552;-49
2022/04/15 10:11:42;;;;;;;13.80;12.70;;;28.00;36.50;;;;;;5004122;28;20437;-46
2022/04/15 10:14:09;;;;;;;13.73;12.43;;;28.10;35.10;;;;;;5006939;28;20433;-48
2022/04/15 10:16:38;;;;;;;12.07;11.07;;;28.20;34.80;;;;;;5004161;28;20477;-46
2022/04/15 10:19:04;;;;;;;15.17;13.77;;;28.30;35.00;;;;;;5004486;28;20421;-46
2022/04/15 10:21:39;;;;;;;12.20;11.00;;;28.40;33.40;;;;;;5005430;28;20444;-46
2022/04/15 10:24:08;;;;;;;11.83;10.83;;;28.60;34.80;;;;;;5003768;28;20605;-48
2022/04/15 10:26:43;;;;;;;12.17;11.20;;;28.70;33.70;;;;;;4999856;28;20489;-47
2022/04/15 10:29:09;;;;;;;13.13;12.03;;;28.70;33.50;;;;;;5005525;28;20466;-47
2022/04/15 10:31:46;;;;;;;14.10;12.70;;;28.70;34.40;;;;;;5006457;28;20913;-48
2022/04/15 10:34:22;;;;;;;12.13;10.97;;;28.80;33.60;;;;;;5004774;28;20947;-48
2022/04/15 10:36:55;;;;;;;11.33;10.43;;;28.80;33.30;;;;;;5006337;28;20518;-46
2022/04/15 10:39:25;;;;;;;11.30;10.40;;;28.70;34.00;;;;;;4997939;28;20453;-47
2022/04/15 10:41:53;;;;;;;12.60;11.50;;;28.70;33.10;;;;;;5003200;28;20435;-47
2022/04/15 10:44:27;;;;;;;15.87;9.60;;;28.50;33.60;;;;;;5004908;28;20555;-50
2022/04/15 10:46:58;;;;;;;12.23;11.03;;;28.70;34.60;;;;;;5004216;28;20483;-47
2022/04/15 10:49:27;;;;;;;12.30;11.40;;;28.90;33.40;;;;;;5004886;28;20463;-50
2022/04/15 10:52:02;;;;;;;10.00;9.17;;;28.70;33.40;;;;;;5008080;28;20445;-47
2022/04/15 10:54:37;;;;;;;11.80;10.67;;;28.70;34.30;;;;;;5003429;28;21051;-47
2022/04/15 10:57:10;;;;;;;11.77;10.57;;;28.70;34.90;;;;;;5006385;28;20499;-47
2022/04/15 11:02:22;;;;;;;10.57;9.50;;;29.00;35.00;;;;;;5002597;28;20436;-48
2022/04/15 11:04:50;;;;;;;11.33;10.30;;;29.20;32.00;;;;;;5004700;28;20929;-47
2022/04/15 11:07:26;;;;;;;10.97;9.87;;;29.30;32.60;;;;;;5005156;28;20487;-46
2022/04/15 11:09:53;;;;;;;11.80;10.80;;;29.50;32.10;;;;;;5006549;28;20444;-48
2022/04/15 11:12:33;;;;;;;9.90;9.00;;;29.50;31.30;;;;;;5010403;28;20929;-48
2022/04/15 11:14:59;;;;;;;10.63;8.30;;;29.50;31.20;;;;;;5008815;28;20480;-51
2022/04/15 11:17:48;;;;;;;8.87;7.73;;;29.40;31.50;;;;;;5010980;28;20491;-46
2022/04/15 11:20:14;;;;;;;10.00;8.97;;;29.40;31.50;;;;;;5007620;28;20476;-52
2022/04/15 11:22:40;;;;;;;9.40;8.40;;;29.50;30.70;;;;;;5012777;28;20487;-48
2022/04/15 11:25:11;;;;;;;6.40;5.90;;;29.30;30.00;;;;;;5011063;28;20873;-52
2022/04/15 11:27:39;;;;;;;7.40;6.50;;;29.40;31.30;;;;;;5010193;28;20500;-49
2022/04/15 11:30:15;;;;;;;8.77;8.00;;;29.50;30.30;;;;;;5013322;28;20456;-48
2022/04/15 11:32:48;;;;;;;10.37;9.20;;;29.50;29.60;;;;;;5012926;28;20448;-48
2022/04/15 11:35:34;;;;;;;7.67;6.97;;;29.40;29.10;;;;;;5012084;28;20441;-52
2022/04/15 11:38:12;;;;;;;8.47;7.40;;;29.30;29.30;;;;;;5010794;28;20448;-51
2022/04/15 11:40:43;;;;;;;6.47;5.87;;;29.20;29.20;;;;;;5002989;28;20459;-50
2022/04/15 11:43:09;;;;;;;9.50;7.77;;;29.10;29.20;;;;;;5012397;28;20862;-50
2022/04/15 11:45:37;;;;;;;5.77;5.00;;;29.00;29.00;;;;;;5012720;28;20854;-51
2022/04/15 11:48:23;;;;;;;6.93;6.33;;;28.90;30.00;;;;;;5013006;28;20515;-51
2022/04/15 11:50:53;;;;;;;7.10;6.40;;;29.20;29.40;;;;;;5006761;28;20973;-50
2022/04/15 11:53:19;;;;;;;8.63;7.73;;;29.40;29.50;;;;;;5009649;28;21295;-49
2022/04/15 11:56:02;;;;;;;7.20;6.60;;;29.50;29.00;;;;;;5007648;28;20444;-52
2022/04/15 11:58:35;;;;;;;5.60;5.10;;;29.50;29.10;;;;;;5007806;28;20444;-53
2022/04/15 12:01:02;;;;;;;7.10;6.40;;;29.60;30.40;;;;;;5006059;28;20433;-50
2022/04/15 12:03:29;;;;;;;9.20;8.30;;;29.80;29.00;;;;;;5011315;28;21233;-50
2022/04/15 12:05:57;;;;;;;7.83;6.80;;;29.90;29.00;;;;;;5004403;28;20433;-50
2022/04/15 12:08:24;;;;;;;7.70;7.00;;;29.80;29.50;;;;;;5005022;28;20528;-49
2022/04/15 12:10:50;;;;;;;6.43;5.90;;;29.90;29.00;;;;;;5007559;28;20453;-50
2022/04/15 12:13:17;;;;;;;5.70;5.20;;;29.90;30.50;;;;;;5008942;28;21088;-50
2022/04/15 12:15:44;;;;;;;5.27;4.87;;;30.00;30.50;;;;;;5007692;28;20440;-49
2022/04/15 12:18:10;;;;;;;7.20;6.50;;;30.10;29.80;;;;;;5007771;28;20464;-51
2022/04/15 12:20:38;;;;;;;7.20;6.60;;;30.20;29.60;;;;;;5022112;28;20655;-50
2022/04/15 12:23:04;;;;;;;5.90;5.30;;;30.20;28.60;;;;;;5007545;28;20441;-47
2022/04/15 12:30:59;;;;;;;4.87;4.40;;;30.30;28.80;;;;;;5008467;28;20491;-49
2022/04/15 12:33:25;;;;;;;7.50;6.80;;;30.10;29.40;;;;;;5017282;28;20436;-45
2022/04/15 12:36:02;;;;;;;5.80;5.30;;;30.10;29.30;;;;;;5021669;28;20943;-52
2022/04/15 12:38:29;;;;;;;3.97;3.67;;;30.10;28.90;;;;;;5002984;28;20441;-48
2022/04/15 12:41:10;;;;;;;5.70;5.20;;;30.20;29.30;;;;;;5006076;28;20837;-47
2022/04/15 12:43:36;;;;;;;7.50;6.80;;;30.40;29.20;;;;;;5010753;28;20488;-47
2022/04/15 12:46:01;;;;;;;7.60;7.00;;;29.90;28.30;;;;;;5013924;28;20806;-47
2022/04/15 12:48:28;;;;;;;7.60;6.87;;;29.40;29.10;;;;;;5014126;28;20268;-48
2022/04/15 12:50:58;;;;;;;6.77;6.13;;;29.50;29.40;;;;;;4996837;28;20790;-46
2022/04/15 12:53:25;;;;;;;6.93;6.30;;;29.60;29.20;;;;;;5004037;28;20802;-46
2022/04/15 12:55:57;;;;;;;5.73;5.23;;;29.60;29.10;;;;;;5003160;28;20445;-48